Daniela Morace — IJAJ2 — position and weather

sailwx.info

Track history (hours):
 
Tides and Currents Weather Stations Pressure Air Temp Water Temp Dewpoint Dewpoint Depression Visibility Wind Speed Wind Dir Waves Ship Positions

Daniela Morace

Last reported at 2015-Apr-21 17:28 UTC. Time now 2015-Apr-21 17:47 UTC.
Position N 38°18' E 015°14'.

Length 36 m; draft 1 m.

Type: Ship. MMSI: 247297500.

Date/timePositionNaut miles runAvg speedWind from/ knotsBaromVisibWave heightAir tempDewpointWater temp
2015-Apr-21 17:28N 38°18' E 015°14'5 5.7
2015-Apr-21 16:33N 38°13' E 015°15'0 0.0
2015-Apr-21 15:33N 38°13' E 015°15'0 0.0
2015-Apr-21 14:33N 38°13' E 015°15'7123.6
2015-Apr-21 11:32N 38°17' E 013°44'2727.3
2015-Apr-21 10:34N 38°16' E 013°10'2625.3
2015-Apr-21 09:32N 38°11' E 012°37'1212.3
2015-Apr-21 08:34N 38°01' E 012°31'0 0.4
2015-Apr-21 07:27N 38°01' E 012°31'0 0.0
2015-Apr-21 06:27N 38°01' E 012°31'0 0.0
2015-Apr-20 11:23N 38°01' E 012°31'5 5.5
2015-Apr-20 10:33N 38°02' E 012°26'4 3.8
2015-Apr-20 09:28N 38°01' E 012°31'0 0.0
2015-Apr-20 08:28N 38°01' E 012°31'0 0.0
2015-Apr-20 07:32N 38°01' E 012°31'0 0.4
2015-Apr-20 06:27N 38°01' E 012°31'0 0.0
2015-Apr-18 09:26N 38°01' E 012°31'0 0.0
2015-Apr-18 08:29N 38°01' E 012°31'0 0.0
2015-Apr-18 07:29N 38°01' E 012°31'0 0.0
2015-Apr-18 06:29N 38°01' E 012°31'0 0.0
2015-Apr-17 15:23N 38°01' E 012°31'0 0.0
2015-Apr-17 14:23N 38°01' E 012°31'0 0.0
2015-Apr-17 13:26N 38°01' E 012°31'0 0.0
2015-Apr-17 12:26N 38°01' E 012°31'0 0.0
2015-Apr-17 11:26N 38°01' E 012°31'0 0.0
2015-Apr-17 09:32N 38°01' E 012°31'0 0.0
2015-Apr-17 08:32N 38°01' E 012°31'0 0.0
2015-Apr-17 07:32N 38°01' E 012°31'0 0.0
2015-Apr-17 06:32N 38°01' E 012°31'0 0.0
2015-Apr-16 15:04N 38°01' E 012°31'0 0.0
2015-Apr-16 14:31N 38°01' E 012°31'0 0.0
2015-Apr-16 13:31N 38°01' E 012°31'0 0.0
2015-Apr-16 12:31N 38°01' E 012°31'0 0.0
2015-Apr-16 11:31N 38°01' E 012°31'0 0.0
2015-Apr-16 09:27N 38°01' E 012°31'0 0.0
2015-Apr-16 08:30N 38°01' E 012°31'0 0.0
2015-Apr-16 07:30N 38°01' E 012°31'0 0.0
2015-Apr-16 06:30N 38°01' E 012°31'0 0.0
2015-Apr-15 15:31N 38°01' E 012°31'0 0.0
2015-Apr-15 14:31N 38°01' E 012°31'0 0.0
2015-Apr-15 13:22N 38°01' E 012°31'0 0.0
2015-Apr-15 12:34N 38°01' E 012°31'0 0.0
2015-Apr-15 11:34N 38°01' E 012°31'0 0.0
2015-Apr-15 09:30N 38°01' E 012°31'0 0.0
2015-Apr-15 08:33N 38°01' E 012°31'0 0.0
2015-Apr-14 13:10N 38°01' E 012°31'4 6.9
2015-Apr-14 12:33N 37°59' E 012°26'1717.2
2015-Apr-14 11:34N 37°58' E 012°05'1616.3
2015-Apr-14 10:34N 38°00' E 012°25'6 6.0
2015-Apr-14 09:33N 37°56' E 012°20'1010.1
2015-Apr-14 08:34N 38°01' E 012°31'6 5.9
2015-Apr-14 07:33N 37°58' E 012°24'2 2.3
2015-Apr-14 06:34N 37°59' E 012°22'7 6.9
2015-Apr-14 05:33N 38°01' E 012°31'1 0.1
2015-Apr-13 18:33N 38°00' E 012°30'3 3.0
2015-Apr-13 17:34N 38°00' E 012°26'3 2.9
2015-Apr-13 16:33N 38°00' E 012°30'3 2.6
2015-Apr-13 15:34N 37°59' E 012°27'6 6.4
2015-Apr-13 14:33N 37°56' E 012°20'9 9.3
2015-Apr-13 13:33N 38°00' E 012°30'3 2.8
2015-Apr-13 12:34N 38°00' E 012°26'3 3.1
2015-Apr-13 11:26N 38°01' E 012°31'0 0.0
2015-Apr-13 10:26N 38°01' E 012°31'0 0.0
2015-Apr-13 09:26N 38°01' E 012°31'0 0.0
2015-Apr-13 08:29N 38°01' E 012°31'0 0.0
2015-Apr-13 07:32N 38°01' E 012°31'1 0.0
2015-Apr-12 12:34N 38°00' E 012°30'2020.0
2015-Apr-12 11:34N 37°58' E 012°05'1313.2
2015-Apr-12 10:34N 37°59' E 012°21'3 3.4
2015-Apr-12 09:33N 37°56' E 012°20'1010.0
2015-Apr-12 08:33N 38°01' E 012°31'6 5.6
2015-Apr-12 07:33N 37°58' E 012°24'3 3.4
2015-Apr-12 06:34N 38°00' E 012°28'2 1.8
2015-Apr-12 05:33N 38°01' E 012°30'1 0.1
2015-Apr-11 18:33N 38°00' E 012°29'2 2.2
2015-Apr-11 17:33N 38°00' E 012°27'  
Track history (hours):
 
Tides and Currents Weather Stations Pressure Air Temp Water Temp Dewpoint Dewpoint Depression Visibility Wind Speed Wind Dir Waves Ship Positions

Daniela Morace

Last reported at 2015-Apr-21 17:28 UTC. Time now 2015-Apr-21 17:47 UTC.
Position N 38°18' E 015°14'.

Length 36 m; draft 1 m.

Type: Ship. MMSI: 247297500.

Date/timePositionNaut miles runAvg speedWind from/ knotsBaromVisibWave heightAir tempDewpointWater temp
2015-Apr-21 17:28N 38°18' E 015°14'5 5.7
2015-Apr-21 16:33N 38°13' E 015°15'0 0.0
2015-Apr-21 15:33N 38°13' E 015°15'0 0.0
2015-Apr-21 14:33N 38°13' E 015°15'7123.6
2015-Apr-21 11:32N 38°17' E 013°44'2727.3
2015-Apr-21 10:34N 38°16' E 013°10'2625.3
2015-Apr-21 09:32N 38°11' E 012°37'1212.3
2015-Apr-21 08:34N 38°01' E 012°31'0 0.4
2015-Apr-21 07:27N 38°01' E 012°31'0 0.0
2015-Apr-21 06:27N 38°01' E 012°31'0 0.0
2015-Apr-20 11:23N 38°01' E 012°31'5 5.5
2015-Apr-20 10:33N 38°02' E 012°26'4 3.8
2015-Apr-20 09:28N 38°01' E 012°31'0 0.0
2015-Apr-20 08:28N 38°01' E 012°31'0 0.0
2015-Apr-20 07:32N 38°01' E 012°31'0 0.4
2015-Apr-20 06:27N 38°01' E 012°31'0 0.0
2015-Apr-18 09:26N 38°01' E 012°31'0 0.0
2015-Apr-18 08:29N 38°01' E 012°31'0 0.0
2015-Apr-18 07:29N 38°01' E 012°31'0 0.0
2015-Apr-18 06:29N 38°01' E 012°31'0 0.0
2015-Apr-17 15:23N 38°01' E 012°31'0 0.0
2015-Apr-17 14:23N 38°01' E 012°31'0 0.0
2015-Apr-17 13:26N 38°01' E 012°31'0 0.0
2015-Apr-17 12:26N 38°01' E 012°31'0 0.0
2015-Apr-17 11:26N 38°01' E 012°31'0 0.0
2015-Apr-17 09:32N 38°01' E 012°31'0 0.0
2015-Apr-17 08:32N 38°01' E 012°31'0 0.0
2015-Apr-17 07:32N 38°01' E 012°31'0 0.0
2015-Apr-17 06:32N 38°01' E 012°31'0 0.0
2015-Apr-16 15:04N 38°01' E 012°31'0 0.0
2015-Apr-16 14:31N 38°01' E 012°31'0 0.0
2015-Apr-16 13:31N 38°01' E 012°31'0 0.0
2015-Apr-16 12:31N 38°01' E 012°31'0 0.0
2015-Apr-16 11:31N 38°01' E 012°31'0 0.0
2015-Apr-16 09:27N 38°01' E 012°31'0 0.0
2015-Apr-16 08:30N 38°01' E 012°31'0 0.0
2015-Apr-16 07:30N 38°01' E 012°31'0 0.0
2015-Apr-16 06:30N 38°01' E 012°31'0 0.0
2015-Apr-15 15:31N 38°01' E 012°31'0 0.0
2015-Apr-15 14:31N 38°01' E 012°31'0 0.0
2015-Apr-15 13:22N 38°01' E 012°31'0 0.0
2015-Apr-15 12:34N 38°01' E 012°31'0 0.0
2015-Apr-15 11:34N 38°01' E 012°31'0 0.0
2015-Apr-15 09:30N 38°01' E 012°31'0 0.0
2015-Apr-15 08:33N 38°01' E 012°31'0 0.0
2015-Apr-14 13:10N 38°01' E 012°31'4 6.9
2015-Apr-14 12:33N 37°59' E 012°26'1717.2
2015-Apr-14 11:34N 37°58' E 012°05'1616.3
2015-Apr-14 10:34N 38°00' E 012°25'6 6.0
2015-Apr-14 09:33N 37°56' E 012°20'1010.1
2015-Apr-14 08:34N 38°01' E 012°31'6 5.9
2015-Apr-14 07:33N 37°58' E 012°24'2 2.3
2015-Apr-14 06:34N 37°59' E 012°22'7 6.9
2015-Apr-14 05:33N 38°01' E 012°31'1 0.1
2015-Apr-13 18:33N 38°00' E 012°30'3 3.0
2015-Apr-13 17:34N 38°00' E 012°26'3 2.9
2015-Apr-13 16:33N 38°00' E 012°30'3 2.6
2015-Apr-13 15:34N 37°59' E 012°27'6 6.4
2015-Apr-13 14:33N 37°56' E 012°20'9 9.3
2015-Apr-13 13:33N 38°00' E 012°30'3 2.8
2015-Apr-13 12:34N 38°00' E 012°26'3 3.1
2015-Apr-13 11:26N 38°01' E 012°31'0 0.0
2015-Apr-13 10:26N 38°01' E 012°31'0 0.0
2015-Apr-13 09:26N 38°01' E 012°31'0 0.0
2015-Apr-13 08:29N 38°01' E 012°31'0 0.0
2015-Apr-13 07:32N 38°01' E 012°31'1 0.0
2015-Apr-12 12:34N 38°00' E 012°30'2020.0
2015-Apr-12 11:34N 37°58' E 012°05'1313.2
2015-Apr-12 10:34N 37°59' E 012°21'3 3.4
2015-Apr-12 09:33N 37°56' E 012°20'1010.0
2015-Apr-12 08:33N 38°01' E 012°31'6 5.6
2015-Apr-12 07:33N 37°58' E 012°24'3 3.4
2015-Apr-12 06:34N 38°00' E 012°28'2 1.8
2015-Apr-12 05:33N 38°01' E 012°30'1 0.1
2015-Apr-11 18:33N 38°00' E 012°29'2 2.2
2015-Apr-11 17:33N 38°00' E 012°27'  

Dump ship's entire track history